createdAt,value
2023-05-07T00:00:32.652Z,0.85
2023-05-07T00:01:32.671Z,0.84
2023-05-07T00:02:32.810Z,0.63
2023-05-07T00:03:32.859Z,0.89
2023-05-07T00:04:32.855Z,0.86
2023-05-07T00:05:32.842Z,1.05
2023-05-07T00:06:32.913Z,0.95
2023-05-07T00:07:33.016Z,0.72
2023-05-07T00:08:32.999Z,1.01
2023-05-07T00:09:33.015Z,0.89
2023-05-07T00:10:33.182Z,0.72
2023-05-07T00:11:34.154Z,0.94
2023-05-07T00:12:33.177Z,1.13
2023-05-07T00:13:33.224Z,0.81
2023-05-07T00:14:33.258Z,0.98
2023-05-07T00:15:33.329Z,0.77
2023-05-07T00:16:33.367Z,0.87
2023-05-07T00:17:33.448Z,0.73
2023-05-07T00:18:33.444Z,0.81
2023-05-07T00:19:33.492Z,0.71
2023-05-07T00:20:35.566Z,0.99
2023-05-07T00:21:33.785Z,0.87
2023-05-07T00:22:33.830Z,1.00
2023-05-07T00:23:33.841Z,1.07
2023-05-07T00:24:33.899Z,0.79
2023-05-07T00:25:33.950Z,0.80
2023-05-07T00:26:33.973Z,0.73
2023-05-07T00:27:34.036Z,0.88
2023-05-07T00:28:34.084Z,0.91
2023-05-07T00:29:34.120Z,0.66
2023-05-07T00:30:34.176Z,0.91
2023-05-07T00:31:34.286Z,0.80
2023-05-07T00:32:34.280Z,0.72
2023-05-07T00:33:34.305Z,0.95
2023-05-07T00:34:34.372Z,0.85
2023-05-07T00:35:34.423Z,0.65
2023-05-07T00:36:34.486Z,0.92
2023-05-07T00:37:34.519Z,0.80
2023-05-07T00:38:34.544Z,0.97
2023-05-07T00:39:34.598Z,0.88
2023-05-07T00:40:34.673Z,1.35
2023-05-07T00:41:34.721Z,0.92
2023-05-07T00:42:34.739Z,0.81
2023-05-07T00:43:34.797Z,1.05
2023-05-07T00:44:34.838Z,0.83
2023-05-07T00:45:34.920Z,0.80
2023-05-07T00:46:35.144Z,0.79
2023-05-07T00:47:35.045Z,0.68
2023-05-07T00:48:35.046Z,0.63
2023-05-07T00:49:35.099Z,0.90
2023-05-07T00:50:35.157Z,0.94
2023-05-07T00:51:35.215Z,0.75
2023-05-07T00:52:35.280Z,0.79
2023-05-07T00:53:35.327Z,1.05
2023-05-07T00:54:35.386Z,0.79
2023-05-07T00:55:35.423Z,0.70
2023-05-07T00:56:35.483Z,0.72
2023-05-07T00:57:35.604Z,0.74
2023-05-07T00:58:35.594Z,0.84
2023-05-07T00:59:35.658Z,0.72
2023-05-07T01:00:35.715Z,0.66
2023-05-07T01:01:35.846Z,1.03
2023-05-07T01:02:35.890Z,0.90
2023-05-07T01:03:35.858Z,0.64
2023-05-07T01:04:36.052Z,0.86
2023-05-07T01:05:35.975Z,0.80
2023-05-07T01:06:36.011Z,0.77
2023-05-07T01:07:36.058Z,0.72
2023-05-07T01:08:36.148Z,0.82
2023-05-07T01:09:36.385Z,0.75
2023-05-07T01:10:36.223Z,0.98
2023-05-07T01:11:36.248Z,0.75
2023-05-07T01:12:36.376Z,0.94
2023-05-07T01:13:36.374Z,0.64
2023-05-07T01:14:36.434Z,0.65
2023-05-07T01:15:36.466Z,0.80
2023-05-07T01:16:36.552Z,0.91
2023-05-07T01:17:36.610Z,0.75
2023-05-07T01:18:36.665Z,0.77
2023-05-07T01:19:36.701Z,0.67
2023-05-07T01:20:36.751Z,0.70
2023-05-07T01:21:36.799Z,0.84
2023-05-07T01:22:36.860Z,0.94
2023-05-07T01:23:36.930Z,1.01
2023-05-07T01:24:36.972Z,0.89
2023-05-07T01:25:37.038Z,0.91
2023-05-07T01:26:37.098Z,0.88
2023-05-07T01:27:37.147Z,1.03
2023-05-07T01:28:37.219Z,0.93
2023-05-07T01:29:37.266Z,0.93
2023-05-07T01:30:37.308Z,0.83
2023-05-07T01:31:37.459Z,0.73
2023-05-07T01:32:37.486Z,0.95
2023-05-07T01:33:37.482Z,0.82
2023-05-07T01:34:37.525Z,0.70
2023-05-07T01:35:37.593Z,0.97
2023-05-07T01:36:37.658Z,0.85
2023-05-07T01:37:37.702Z,0.66
2023-05-07T01:38:37.765Z,0.74
2023-05-07T01:39:37.806Z,1.27
2023-05-07T01:40:37.861Z,0.97
2023-05-07T01:41:37.955Z,0.81
2023-05-07T01:42:37.977Z,1.09
2023-05-07T01:43:38.103Z,0.89
2023-05-07T01:44:38.084Z,0.89
2023-05-07T01:45:38.178Z,0.84
2023-05-07T01:46:38.267Z,0.77
2023-05-07T01:47:38.318Z,0.70
2023-05-07T01:48:38.356Z,0.62
2023-05-07T01:49:38.367Z,0.81
2023-05-07T01:50:38.438Z,1.00
2023-05-07T01:51:38.505Z,0.83
2023-05-07T01:52:38.600Z,0.80
2023-05-07T01:53:38.612Z,0.81
2023-05-07T01:54:38.687Z,0.84
2023-05-07T01:55:38.751Z,1.03
2023-05-07T01:56:38.874Z,0.67
2023-05-07T01:57:38.879Z,0.99
2023-05-07T01:58:38.957Z,0.78
2023-05-07T01:59:39.071Z,0.83
2023-05-07T02:00:39.093Z,1.09
2023-05-07T02:01:39.200Z,0.75
2023-05-07T02:02:39.386Z,0.83
2023-05-07T02:03:39.368Z,0.83
2023-05-07T02:04:39.327Z,0.79
2023-05-07T02:05:39.373Z,0.74
2023-05-07T02:06:39.436Z,0.89
2023-05-07T02:07:39.523Z,0.80
2023-05-07T02:08:39.565Z,0.66
2023-05-07T02:09:39.612Z,0.86
2023-05-07T02:10:39.671Z,0.76
2023-05-07T02:11:39.733Z,0.76
2023-05-07T02:12:39.810Z,0.99
2023-05-07T02:13:39.852Z,0.98
2023-05-07T02:14:39.894Z,1.04
2023-05-07T02:15:40.020Z,0.70
2023-05-07T02:16:40.109Z,0.85
2023-05-07T02:17:40.468Z,0.88
2023-05-07T02:18:40.147Z,0.71
2023-05-07T02:19:40.226Z,0.84
2023-05-07T02:20:40.275Z,0.77
2023-05-07T02:21:40.298Z,0.73
2023-05-07T02:22:40.377Z,0.94
2023-05-07T02:23:40.438Z,0.80
2023-05-07T02:24:40.469Z,1.02
2023-05-07T02:25:40.551Z,0.81
2023-05-07T02:26:40.594Z,0.92
2023-05-07T02:27:40.674Z,0.72
2023-05-07T02:28:40.707Z,0.92
2023-05-07T02:29:40.790Z,0.77
2023-05-07T02:30:40.828Z,1.05
2023-05-07T02:31:41.033Z,0.79
2023-05-07T02:32:41.025Z,0.97
2023-05-07T02:33:41.002Z,0.95
2023-05-07T02:34:41.063Z,0.82
2023-05-07T02:35:41.106Z,1.00
2023-05-07T02:36:41.188Z,0.84
2023-05-07T02:37:41.248Z,1.01
2023-05-07T02:38:41.285Z,0.79
2023-05-07T02:39:41.338Z,0.94
2023-05-07T02:40:41.406Z,0.80
2023-05-07T02:41:41.460Z,0.84
2023-05-07T02:42:41.565Z,0.99
2023-05-07T02:43:41.564Z,0.75
2023-05-07T02:44:41.653Z,0.82
2023-05-07T02:45:41.733Z,0.90
2023-05-07T02:46:41.752Z,0.99
2023-05-07T02:47:41.942Z,0.80
2023-05-07T02:48:41.878Z,0.71
2023-05-07T02:49:41.895Z,0.76
2023-05-07T02:50:41.962Z,0.85
2023-05-07T02:51:42.045Z,1.19
2023-05-07T02:52:42.067Z,0.85
2023-05-07T02:53:42.152Z,0.90
2023-05-07T02:54:42.191Z,0.86
2023-05-07T02:55:42.247Z,1.00
2023-05-07T02:56:42.311Z,0.71
2023-05-07T02:57:42.368Z,0.70
2023-05-07T02:58:42.400Z,0.99
2023-05-07T02:59:42.463Z,1.06
2023-05-07T03:00:42.530Z,0.81
2023-05-07T03:01:42.656Z,1.00
2023-05-07T03:02:42.691Z,1.15
2023-05-07T03:03:42.745Z,0.88
2023-05-07T03:04:42.794Z,0.84
2023-05-07T03:05:42.839Z,0.62
2023-05-07T03:06:42.895Z,0.73
2023-05-07T03:07:42.977Z,0.81
2023-05-07T03:08:43.008Z,0.78
2023-05-07T03:09:43.072Z,0.91
2023-05-07T03:10:43.122Z,0.78
2023-05-07T03:11:43.184Z,0.84
2023-05-07T03:12:43.313Z,0.74
2023-05-07T03:13:43.391Z,0.76
2023-05-07T03:14:43.368Z,0.68
2023-05-07T03:15:43.412Z,0.91
2023-05-07T03:16:43.456Z,0.86
2023-05-07T03:17:43.571Z,1.04
2023-05-07T03:18:43.680Z,0.69
2023-05-07T03:19:43.703Z,0.95
2023-05-07T03:20:43.756Z,0.79
2023-05-07T03:21:43.772Z,0.64
2023-05-07T03:22:43.826Z,0.95
2023-05-07T03:23:43.876Z,0.94
2023-05-07T03:24:43.938Z,0.98
2023-05-07T03:25:43.999Z,0.95
2023-05-07T03:26:44.058Z,1.03
2023-05-07T03:27:44.141Z,0.90
2023-05-07T03:28:44.206Z,0.86
2023-05-07T03:29:44.249Z,0.81
2023-05-07T03:30:44.313Z,0.85
2023-05-07T03:31:44.420Z,0.87
2023-05-07T03:32:44.445Z,0.75
2023-05-07T03:33:44.496Z,0.91
2023-05-07T03:34:44.545Z,0.89
2023-05-07T03:35:44.660Z,0.78
2023-05-07T03:36:44.690Z,0.67
2023-05-07T03:37:44.760Z,1.03
2023-05-07T03:38:44.792Z,0.85
2023-05-07T03:39:44.853Z,0.98
2023-05-07T03:40:44.906Z,0.73
2023-05-07T03:41:45.070Z,0.86
2023-05-07T03:42:45.119Z,0.99
2023-05-07T03:43:45.098Z,0.75
2023-05-07T03:44:45.143Z,0.70
2023-05-07T03:45:45.201Z,0.80
2023-05-07T03:46:45.359Z,0.95
2023-05-07T03:47:45.338Z,0.98
2023-05-07T03:48:45.372Z,0.92
2023-05-07T03:49:45.433Z,0.70
2023-05-07T03:50:45.484Z,1.06
2023-05-07T03:51:45.649Z,0.83
2023-05-07T03:52:45.613Z,1.00
2023-05-07T03:53:45.683Z,0.76
2023-05-07T03:54:45.717Z,0.75
2023-05-07T03:55:45.770Z,0.73
2023-05-07T03:56:45.837Z,0.92
2023-05-07T03:57:45.908Z,0.92
2023-05-07T03:58:45.929Z,0.83
2023-05-07T03:59:45.989Z,0.73
2023-05-07T04:00:46.031Z,0.84
2023-05-07T04:01:46.101Z,0.65
2023-05-07T04:02:46.240Z,0.89
2023-05-07T04:03:46.243Z,0.64
2023-05-07T04:04:46.237Z,0.73
2023-05-07T04:05:46.275Z,0.69
2023-05-07T04:06:46.302Z,0.96
2023-05-07T04:07:46.423Z,0.76
2023-05-07T04:08:46.382Z,0.68
2023-05-07T04:09:46.451Z,0.91
2023-05-07T04:10:46.500Z,1.03
2023-05-07T04:11:46.512Z,0.80
2023-05-07T04:12:46.615Z,0.75
2023-05-07T04:13:46.604Z,0.57
2023-05-07T04:14:46.679Z,0.83
2023-05-07T04:15:46.727Z,0.57
2023-05-07T04:16:46.916Z,0.77
2023-05-07T04:17:46.869Z,0.83
2023-05-07T04:18:46.912Z,0.73
2023-05-07T04:19:46.991Z,0.84
2023-05-07T04:20:47.066Z,0.76
2023-05-07T04:21:47.085Z,0.76
2023-05-07T04:22:47.137Z,0.49
2023-05-07T04:23:47.168Z,0.87
2023-05-07T04:24:47.222Z,0.88
2023-05-07T04:25:47.285Z,0.94
2023-05-07T04:26:47.320Z,0.95
2023-05-07T04:27:47.342Z,0.85
2023-05-07T04:28:47.344Z,0.82
2023-05-07T04:29:47.366Z,0.92
2023-05-07T04:30:47.409Z,0.78
2023-05-07T04:31:47.477Z,0.64
2023-05-07T04:32:47.525Z,0.74
2023-05-07T04:33:47.544Z,0.79
2023-05-07T04:34:47.606Z,0.60
2023-05-07T04:35:47.653Z,0.91
2023-05-07T04:36:47.695Z,0.82
2023-05-07T04:37:47.761Z,1.16
2023-05-07T04:38:47.788Z,0.98
2023-05-07T04:39:47.903Z,1.07
2023-05-07T04:40:47.899Z,0.83
2023-05-07T04:41:47.963Z,0.65
2023-05-07T04:42:48.382Z,0.77
2023-05-07T04:43:48.107Z,0.61
2023-05-07T04:44:48.164Z,0.71
2023-05-07T04:45:48.260Z,0.97
2023-05-07T04:46:48.271Z,0.69
2023-05-07T04:47:48.390Z,0.87
2023-05-07T04:48:48.408Z,0.66
2023-05-07T04:49:48.463Z,1.10
2023-05-07T04:50:48.516Z,0.92
2023-05-07T04:51:48.582Z,0.66
2023-05-07T04:52:48.663Z,0.80
2023-05-07T04:53:48.720Z,0.81
2023-05-07T04:54:48.771Z,0.91
2023-05-07T04:55:48.896Z,0.90
2023-05-07T04:56:48.971Z,0.90
2023-05-07T04:57:49.057Z,0.58
2023-05-07T04:58:49.071Z,0.68
2023-05-07T04:59:49.106Z,0.60
2023-05-07T05:00:49.166Z,0.90
2023-05-07T05:01:49.247Z,0.89
2023-05-07T05:02:49.425Z,0.58
2023-05-07T05:03:49.361Z,0.76
2023-05-07T05:04:49.371Z,0.59
2023-05-07T05:05:49.426Z,0.80
2023-05-07T05:06:49.472Z,0.89
2023-05-07T05:07:49.518Z,0.84
2023-05-07T05:08:49.582Z,0.88
2023-05-07T05:09:49.619Z,0.74
2023-05-07T05:10:49.650Z,0.71
2023-05-07T05:11:49.709Z,0.93
2023-05-07T05:12:49.797Z,0.88
2023-05-07T05:13:49.784Z,0.82
2023-05-07T05:14:49.857Z,0.82
2023-05-07T05:15:49.916Z,0.51
2023-05-07T05:16:49.929Z,0.71
2023-05-07T05:17:50.005Z,1.14
2023-05-07T05:18:50.030Z,0.83
2023-05-07T05:19:50.047Z,0.83
2023-05-07T05:20:50.111Z,0.92
2023-05-07T05:21:50.153Z,0.85
2023-05-07T05:22:50.193Z,0.99
2023-05-07T05:23:50.238Z,0.76
2023-05-07T05:24:50.276Z,0.63
2023-05-07T05:25:50.316Z,0.92
2023-05-07T05:26:50.359Z,0.97
2023-05-07T05:27:50.440Z,0.75
2023-05-07T05:28:50.402Z,0.91
2023-05-07T05:29:50.458Z,0.60
2023-05-07T05:30:50.488Z,0.90
2023-05-07T05:31:50.594Z,0.85
2023-05-07T05:32:50.594Z,0.86
2023-05-07T05:33:50.589Z,0.73
2023-05-07T05:34:50.641Z,0.79
2023-05-07T05:35:50.688Z,0.81
2023-05-07T05:36:50.840Z,0.84
2023-05-07T05:37:50.979Z,0.75
2023-05-07T05:38:51.093Z,0.57
2023-05-07T05:39:51.231Z,0.84
2023-05-07T05:40:51.386Z,0.88
2023-05-07T05:41:51.508Z,0.95
2023-05-07T05:42:51.624Z,0.86
2023-05-07T05:43:51.826Z,1.04
2023-05-07T05:44:51.897Z,0.71
2023-05-07T05:45:52.153Z,0.67
2023-05-07T05:46:52.419Z,1.08
2023-05-07T05:47:52.480Z,0.66
2023-05-07T05:48:52.608Z,0.56
2023-05-07T05:49:52.713Z,1.00
2023-05-07T05:50:52.856Z,0.69
2023-05-07T05:51:53.017Z,0.94
2023-05-07T05:52:53.155Z,0.95
2023-05-07T05:53:53.262Z,0.90
2023-05-07T05:54:53.409Z,0.62
2023-05-07T05:55:53.541Z,0.85
2023-05-07T05:56:53.696Z,0.82
2023-05-07T05:57:53.855Z,0.80
2023-05-07T05:58:54.077Z,0.79
2023-05-07T05:59:54.105Z,0.97
2023-05-07T06:00:54.242Z,0.71
2023-05-07T06:01:54.386Z,0.91
2023-05-07T06:02:54.448Z,0.98
2023-05-07T06:03:54.570Z,0.88
2023-05-07T06:04:54.796Z,0.87
2023-05-07T06:05:54.827Z,0.92
2023-05-07T06:06:55.000Z,0.89
2023-05-07T06:07:55.165Z,0.68
2023-05-07T06:08:55.258Z,0.80
2023-05-07T06:09:55.232Z,1.06
2023-05-07T06:10:55.237Z,0.77
2023-05-07T06:11:55.258Z,0.79
2023-05-07T06:12:55.347Z,0.68
2023-05-07T06:13:55.274Z,0.72
2023-05-07T06:14:55.391Z,1.08
2023-05-07T06:15:55.405Z,0.79
2023-05-07T06:16:55.523Z,0.76
2023-05-07T06:17:55.604Z,0.76
2023-05-07T06:18:55.633Z,0.68
2023-05-07T06:19:55.682Z,0.79
2023-05-07T06:20:55.732Z,0.96
2023-05-07T06:21:55.785Z,1.06
2023-05-07T06:22:55.870Z,0.90
2023-05-07T06:23:55.923Z,0.97
2023-05-07T06:24:56.043Z,0.80
2023-05-07T06:25:56.032Z,0.99
2023-05-07T06:26:56.109Z,1.04
2023-05-07T06:27:56.144Z,1.06
2023-05-07T06:28:56.134Z,0.97
2023-05-07T06:29:56.180Z,0.96
2023-05-07T06:30:56.322Z,0.72
2023-05-07T06:31:56.421Z,1.26
2023-05-07T06:32:56.433Z,0.85
2023-05-07T06:33:56.406Z,0.87
2023-05-07T06:34:56.373Z,0.95
2023-05-07T06:35:56.439Z,0.73
2023-05-07T06:36:56.487Z,0.83
2023-05-07T06:37:56.575Z,0.99
2023-05-07T06:38:56.543Z,0.83
2023-05-07T06:39:57.565Z,1.06
2023-05-07T06:40:56.652Z,0.84
2023-05-07T06:41:56.613Z,0.86
2023-05-07T06:42:56.626Z,0.95
2023-05-07T06:43:56.572Z,0.94
2023-05-07T06:44:56.562Z,0.99
2023-05-07T06:45:56.593Z,0.93
2023-05-07T06:46:56.656Z,1.20
2023-05-07T06:47:56.585Z,0.80
2023-05-07T06:48:56.547Z,1.14
2023-05-07T06:49:56.540Z,0.88
2023-05-07T06:50:56.528Z,0.89
2023-05-07T06:51:56.530Z,1.25
2023-05-07T06:52:56.504Z,0.74
2023-05-07T06:53:56.495Z,0.77
2023-05-07T06:54:56.504Z,0.82
2023-05-07T06:55:56.495Z,0.82
2023-05-07T06:56:56.475Z,0.92
2023-05-07T06:57:56.498Z,0.67
2023-05-07T06:58:56.452Z,0.82
2023-05-07T06:59:56.442Z,0.71
2023-05-07T07:00:56.463Z,1.20
2023-05-07T07:01:56.565Z,0.92
2023-05-07T07:02:56.523Z,0.74
2023-05-07T07:03:56.461Z,1.04
2023-05-07T07:04:56.470Z,1.03
2023-05-07T07:05:56.412Z,0.92
2023-05-07T07:06:56.404Z,0.58
2023-05-07T07:07:56.414Z,0.94
2023-05-07T07:08:56.401Z,0.80
2023-05-07T07:09:56.378Z,0.91
2023-05-07T07:10:56.401Z,0.88
2023-05-07T07:11:56.400Z,0.79
2023-05-07T07:12:56.453Z,0.74
2023-05-07T07:13:56.356Z,1.04
2023-05-07T07:14:56.336Z,0.90
2023-05-07T07:15:56.381Z,0.87
2023-05-07T07:16:56.398Z,0.95
2023-05-07T07:17:56.386Z,0.66
2023-05-07T07:18:56.362Z,0.82
2023-05-07T07:19:56.407Z,0.72
2023-05-07T07:20:56.338Z,1.13
2023-05-07T07:21:56.342Z,0.88
2023-05-07T07:22:56.334Z,0.92
2023-05-07T07:23:56.365Z,0.94
2023-05-07T07:24:56.410Z,1.04
2023-05-07T07:25:56.366Z,0.75
2023-05-07T07:26:56.467Z,1.17
2023-05-07T07:27:56.448Z,1.16
2023-05-07T07:28:56.414Z,1.10
2023-05-07T07:29:56.419Z,0.80
2023-05-07T07:30:56.456Z,0.82
2023-05-07T07:31:56.479Z,0.74
2023-05-07T07:32:56.545Z,0.97
2023-05-07T07:33:56.565Z,1.12
2023-05-07T07:34:56.581Z,1.04
2023-05-07T07:35:56.539Z,1.08
2023-05-07T07:36:56.553Z,0.79
2023-05-07T07:37:56.609Z,0.69
2023-05-07T07:38:56.616Z,0.65
2023-05-07T07:39:56.580Z,0.88
2023-05-07T07:40:56.606Z,0.91
2023-05-07T07:41:56.600Z,0.96
2023-05-07T07:42:56.635Z,0.75
2023-05-07T07:43:56.629Z,0.64
2023-05-07T07:44:56.649Z,0.88
2023-05-07T07:45:56.638Z,0.93
2023-05-07T07:46:56.787Z,0.83
2023-05-07T07:47:56.750Z,0.79
2023-05-07T07:48:56.725Z,0.96
2023-05-07T07:49:56.699Z,0.91
2023-05-07T07:50:56.738Z,0.74
2023-05-07T07:51:56.725Z,0.72
2023-05-07T07:52:56.751Z,0.91
2023-05-07T07:53:56.856Z,0.97
2023-05-07T07:54:56.843Z,0.91
2023-05-07T07:55:59.441Z,0.94
2023-05-07T07:56:56.786Z,0.87
2023-05-07T07:57:56.724Z,0.79
2023-05-07T07:58:56.746Z,0.76
2023-05-07T07:59:56.796Z,0.73
2023-05-07T08:00:56.723Z,0.61
2023-05-07T08:01:56.796Z,0.68
2023-05-07T08:02:56.939Z,0.80
2023-05-07T08:03:56.751Z,0.85
2023-05-07T08:04:56.803Z,0.65
2023-05-07T08:05:56.686Z,0.67
2023-05-07T08:06:56.670Z,0.78
2023-05-07T08:07:56.690Z,0.81
2023-05-07T08:08:56.654Z,0.78
2023-05-07T08:09:56.639Z,0.71
2023-05-07T08:10:56.657Z,0.99
2023-05-07T08:11:56.658Z,0.62
2023-05-07T08:12:56.724Z,0.80
2023-05-07T08:13:56.620Z,0.71
2023-05-07T08:14:56.681Z,0.71
2023-05-07T08:15:56.603Z,0.54
2023-05-07T08:16:56.668Z,0.55
2023-05-07T08:17:56.667Z,0.78
2023-05-07T08:18:56.590Z,0.55
2023-05-07T08:19:56.595Z,0.61
2023-05-07T08:20:56.598Z,0.72
2023-05-07T08:21:56.628Z,0.91
2023-05-07T08:22:56.702Z,0.44
2023-05-07T08:23:56.582Z,0.98
2023-05-07T08:24:56.573Z,0.74
2023-05-07T08:25:56.542Z,0.50
2023-05-07T08:26:56.556Z,0.53
2023-05-07T08:27:56.550Z,0.63
2023-05-07T08:28:56.542Z,0.50
2023-05-07T08:29:56.553Z,0.51
2023-05-07T08:30:56.616Z,0.57
2023-05-07T08:31:56.524Z,0.59
2023-05-07T08:32:56.584Z,0.68
2023-05-07T08:33:56.615Z,0.64
2023-05-07T08:34:56.500Z,0.54
2023-05-07T08:35:56.480Z,0.57
2023-05-07T08:36:56.498Z,0.87
2023-05-07T08:37:56.506Z,0.57
2023-05-07T08:38:56.513Z,0.70
2023-05-07T08:39:56.481Z,0.58
2023-05-07T08:40:56.491Z,0.76
2023-05-07T08:41:56.577Z,0.50
2023-05-07T08:42:56.595Z,0.72
2023-05-07T08:43:56.615Z,0.53
2023-05-07T08:44:56.661Z,0.35
2023-05-07T08:45:56.792Z,0.66
2023-05-07T08:46:56.707Z,0.65
2023-05-07T08:47:56.760Z,0.61
2023-05-07T08:48:56.857Z,0.65
2023-05-07T08:49:56.850Z,0.61
2023-05-07T08:50:56.871Z,0.46
2023-05-07T08:51:56.896Z,0.60
2023-05-07T08:52:56.910Z,0.66
2023-05-07T08:53:56.907Z,0.67
2023-05-07T08:54:56.883Z,0.77
2023-05-07T08:55:56.937Z,0.31
2023-05-07T08:56:56.956Z,0.51
2023-05-07T08:57:56.963Z,0.31
2023-05-07T08:58:56.998Z,0.54
2023-05-07T08:59:57.010Z,0.60
2023-05-07T09:00:57.013Z,0.45
2023-05-07T09:01:57.132Z,0.70
2023-05-07T09:02:57.132Z,0.50
2023-05-07T09:03:57.216Z,0.50
2023-05-07T09:04:57.121Z,0.60
2023-05-07T09:05:58.091Z,0.40
2023-05-07T09:06:57.133Z,0.55
2023-05-07T09:07:58.309Z,0.53
2023-05-07T09:08:57.176Z,0.58
2023-05-07T09:09:57.163Z,0.65
2023-05-07T09:10:57.215Z,1.17
2023-05-07T09:11:57.195Z,0.69
2023-05-07T09:12:57.661Z,0.49
2023-05-07T09:13:57.330Z,0.49
2023-05-07T09:14:57.187Z,0.50
2023-05-07T09:15:57.212Z,0.46
2023-05-07T09:16:57.200Z,0.50
2023-05-07T09:17:57.256Z,0.65
2023-05-07T09:18:57.239Z,0.35
2023-05-07T09:19:57.287Z,0.48
2023-05-07T09:20:57.244Z,0.36
2023-05-07T09:21:57.239Z,0.55
2023-05-07T09:22:57.241Z,0.44
2023-05-07T09:23:57.256Z,0.38
2023-05-07T09:24:57.261Z,0.50
2023-05-07T09:25:57.317Z,0.43
2023-05-07T09:26:57.292Z,0.49
2023-05-07T09:27:57.320Z,0.48
2023-05-07T09:28:57.349Z,0.40
2023-05-07T09:29:57.332Z,0.46
2023-05-07T09:30:57.331Z,0.42
2023-05-07T09:31:57.371Z,0.45
2023-05-07T09:32:57.457Z,0.50
2023-05-07T09:33:57.328Z,0.58
2023-05-07T09:34:57.347Z,0.25
2023-05-07T09:35:57.368Z,0.41
2023-05-07T09:36:57.346Z,0.46
2023-05-07T09:37:57.358Z,0.53
2023-05-07T09:38:57.352Z,0.48
2023-05-07T09:39:57.362Z,0.53
2023-05-07T09:40:57.364Z,0.42
2023-05-07T09:41:57.356Z,0.36
2023-05-07T09:42:57.458Z,0.51
2023-05-07T09:43:57.342Z,0.49
2023-05-07T09:44:57.350Z,0.55
2023-05-07T09:45:57.416Z,0.41
2023-05-07T09:46:57.356Z,0.44
2023-05-07T09:47:57.417Z,0.46
2023-05-07T09:48:57.359Z,0.43
2023-05-07T09:49:57.353Z,0.42
2023-05-07T09:50:57.340Z,0.37
2023-05-07T09:51:57.329Z,0.67
2023-05-07T09:52:57.328Z,0.38
2023-05-07T09:53:57.329Z,0.55
2023-05-07T09:54:57.323Z,0.56
2023-05-07T09:55:57.319Z,0.30
2023-05-07T09:56:57.330Z,0.38
2023-05-07T09:57:57.343Z,0.40
2023-05-07T09:58:57.401Z,0.42
2023-05-07T09:59:57.354Z,0.44
2023-05-07T10:00:57.404Z,0.37
2023-05-07T10:01:57.384Z,0.51
2023-05-07T10:02:57.461Z,0.50
2023-05-07T10:03:57.496Z,0.49
2023-05-07T10:04:57.398Z,0.46
2023-05-07T10:05:57.385Z,0.32
2023-05-07T10:06:57.413Z,0.51
2023-05-07T10:07:57.395Z,0.36
2023-05-07T10:08:57.409Z,0.43
2023-05-07T10:09:57.403Z,0.37
2023-05-07T10:10:57.404Z,0.50
2023-05-07T10:11:57.388Z,0.44
2023-05-07T10:12:57.425Z,0.46
2023-05-07T10:13:57.407Z,0.35
2023-05-07T10:14:57.454Z,0.37
2023-05-07T10:15:57.403Z,0.32
2023-05-07T10:16:57.497Z,0.37
2023-05-07T10:17:57.469Z,0.35
2023-05-07T10:18:57.412Z,0.69
2023-05-07T10:19:57.444Z,0.43
2023-05-07T10:20:57.450Z,0.27
2023-05-07T10:21:57.458Z,0.43
2023-05-07T10:22:57.426Z,0.34
2023-05-07T10:23:57.423Z,0.34
2023-05-07T10:24:57.438Z,0.27
2023-05-07T10:26:01.009Z,0.38
2023-05-07T10:26:57.456Z,0.52
2023-05-07T10:27:57.405Z,0.43
2023-05-07T10:28:57.396Z,0.65
2023-05-07T10:29:57.378Z,0.40
2023-05-07T10:30:57.498Z,0.50
2023-05-07T10:31:57.380Z,0.25
2023-05-07T10:32:57.369Z,0.55
2023-05-07T10:33:57.363Z,0.59
2023-05-07T10:34:57.366Z,0.36
2023-05-07T10:35:57.340Z,0.24
2023-05-07T10:36:57.360Z,0.53
2023-05-07T10:37:57.331Z,0.44
2023-05-07T10:38:57.328Z,0.26
2023-05-07T10:39:57.301Z,0.39
2023-05-07T10:40:57.327Z,0.29
2023-05-07T10:41:57.287Z,0.36
2023-05-07T10:42:57.330Z,0.49
2023-05-07T10:43:57.313Z,0.41
2023-05-07T10:44:57.273Z,0.35
2023-05-07T10:45:57.293Z,0.30
2023-05-07T10:46:57.325Z,0.45
2023-05-07T10:47:57.673Z,0.38
2023-05-07T10:48:57.300Z,0.31
2023-05-07T10:49:57.295Z,0.41
2023-05-07T10:50:57.346Z,0.26
2023-05-07T10:51:57.294Z,0.48
2023-05-07T10:52:57.270Z,0.36
2023-05-07T10:53:57.318Z,0.39
2023-05-07T10:54:57.250Z,0.45
2023-05-07T10:55:57.239Z,0.40
2023-05-07T10:56:57.190Z,0.42
2023-05-07T10:57:57.268Z,0.42
2023-05-07T10:58:57.270Z,0.36
2023-05-07T10:59:59.222Z,0.33
2023-05-07T11:00:57.187Z,0.27
2023-05-07T11:01:57.313Z,0.58
2023-05-07T11:02:57.308Z,0.32
2023-05-07T11:03:57.148Z,0.33
2023-05-07T11:04:57.183Z,0.40
2023-05-07T11:05:57.123Z,0.49
2023-05-07T11:06:57.222Z,0.46
2023-05-07T11:07:57.158Z,0.44
2023-05-07T11:08:57.136Z,0.41
2023-05-07T11:09:57.121Z,0.41
2023-05-07T11:10:57.104Z,0.48
2023-05-07T11:11:57.131Z,0.37
2023-05-07T11:12:57.189Z,0.53
2023-05-07T11:13:57.103Z,0.44
2023-05-07T11:14:57.130Z,0.28
2023-05-07T11:15:57.113Z,0.45
2023-05-07T11:16:57.135Z,0.31
2023-05-07T11:17:57.128Z,0.31
2023-05-07T11:18:57.108Z,0.42
2023-05-07T11:19:57.124Z,0.41
2023-05-07T11:20:57.127Z,0.42
2023-05-07T11:21:57.128Z,0.42
2023-05-07T11:22:57.120Z,0.36
2023-05-07T11:23:57.141Z,0.46
2023-05-07T11:24:57.139Z,0.41
2023-05-07T11:25:57.126Z,0.34
2023-05-07T11:26:57.186Z,0.42
2023-05-07T11:27:57.127Z,0.38
2023-05-07T11:28:57.153Z,0.38
2023-05-07T11:29:57.166Z,0.54
2023-05-07T11:30:57.174Z,0.34
2023-05-07T11:31:57.211Z,0.16
2023-05-07T11:32:57.259Z,0.43
2023-05-07T11:33:57.177Z,0.49
2023-05-07T11:34:57.234Z,0.34
2023-05-07T11:35:57.210Z,0.59
2023-05-07T11:36:57.182Z,0.42
2023-05-07T11:37:57.181Z,0.39
2023-05-07T11:38:57.252Z,0.49
2023-05-07T11:39:57.308Z,0.42
2023-05-07T11:40:57.289Z,0.36
2023-05-07T11:41:57.262Z,0.33
2023-05-07T11:42:57.335Z,0.43
2023-05-07T11:43:57.288Z,0.49
2023-05-07T11:44:57.258Z,0.34
2023-05-07T11:45:57.266Z,0.31
2023-05-07T11:46:57.681Z,0.28
2023-05-07T11:47:57.395Z,0.37
2023-05-07T11:48:57.363Z,0.37
2023-05-07T11:49:57.258Z,0.36
2023-05-07T11:50:57.297Z,0.37
2023-05-07T11:51:57.296Z,0.33
2023-05-07T11:52:57.410Z,0.36
2023-05-07T11:53:57.359Z,0.33
2023-05-07T11:54:57.354Z,0.47
2023-05-07T11:55:57.347Z,0.55
2023-05-07T11:56:57.377Z,0.33
2023-05-07T11:57:57.385Z,0.39
2023-05-07T11:58:57.363Z,0.40
2023-05-07T11:59:57.366Z,0.42
2023-05-07T12:00:57.352Z,0.58
2023-05-07T12:01:57.370Z,0.26
2023-05-07T12:02:57.443Z,0.47
2023-05-07T12:03:57.395Z,0.31
2023-05-07T12:04:57.393Z,0.35
2023-05-07T12:05:57.360Z,0.39
2023-05-07T12:06:57.369Z,0.32
2023-05-07T12:07:57.421Z,0.64
2023-05-07T12:08:57.388Z,0.36
2023-05-07T12:09:57.408Z,0.56
2023-05-07T12:10:57.395Z,0.51
2023-05-07T12:11:57.418Z,0.27
2023-05-07T12:12:57.479Z,0.35
2023-05-07T12:13:59.219Z,0.36
2023-05-07T12:14:57.428Z,0.28
2023-05-07T12:15:57.457Z,0.42
2023-05-07T12:16:57.507Z,0.35
2023-05-07T12:17:57.753Z,0.19
2023-05-07T12:18:57.496Z,0.51
2023-05-07T12:19:57.499Z,0.36
2023-05-07T12:20:57.509Z,0.45
2023-05-07T12:21:57.529Z,0.46
2023-05-07T12:22:57.543Z,0.38
2023-05-07T12:23:57.518Z,0.41
2023-05-07T12:24:57.585Z,0.48
2023-05-07T12:25:57.522Z,0.28
2023-05-07T12:26:57.550Z,0.23
2023-05-07T12:27:57.535Z,0.47
2023-05-07T12:28:57.539Z,0.48
2023-05-07T12:29:57.546Z,0.33
2023-05-07T12:30:57.556Z,0.37
2023-05-07T12:31:57.615Z,0.54
2023-05-07T12:32:57.623Z,0.31
2023-05-07T12:33:57.572Z,0.37
2023-05-07T12:34:57.581Z,0.54
2023-05-07T12:35:57.602Z,0.31
2023-05-07T12:36:57.587Z,0.39
2023-05-07T12:37:57.623Z,0.40
2023-05-07T12:38:57.604Z,0.47
2023-05-07T12:39:57.631Z,0.38
2023-05-07T12:40:57.630Z,0.23
2023-05-07T12:41:57.641Z,0.51
2023-05-07T12:42:58.541Z,0.51
2023-05-07T12:43:57.808Z,0.32
2023-05-07T12:44:57.796Z,0.35
2023-05-07T12:45:57.857Z,0.34
2023-05-07T12:46:57.886Z,0.35
2023-05-07T12:47:57.841Z,0.31
2023-05-07T12:48:57.875Z,0.35
2023-05-07T12:49:57.882Z,0.33
2023-05-07T12:50:57.848Z,0.56
2023-05-07T12:51:57.880Z,0.56
2023-05-07T12:52:57.896Z,0.41
2023-05-07T12:53:57.892Z,0.39
2023-05-07T12:54:57.889Z,0.44
2023-05-07T12:55:57.895Z,0.51
2023-05-07T12:56:57.916Z,0.33
2023-05-07T12:57:57.929Z,0.27
2023-05-07T12:58:58.000Z,0.39
2023-05-07T12:59:57.960Z,0.27
2023-05-07T13:00:58.627Z,0.39
2023-05-07T13:01:57.997Z,0.51
2023-05-07T13:02:58.055Z,0.21
2023-05-07T13:03:57.984Z,0.44
2023-05-07T13:04:57.982Z,0.31
2023-05-07T13:05:58.665Z,0.28
2023-05-07T13:06:58.028Z,0.41
2023-05-07T13:07:58.095Z,0.41
2023-05-07T13:08:58.069Z,0.44
2023-05-07T13:09:58.072Z,0.28
2023-05-07T13:10:58.090Z,0.30
2023-05-07T13:11:58.108Z,0.31
2023-05-07T13:12:58.166Z,0.32
2023-05-07T13:13:58.141Z,0.29
2023-05-07T13:14:58.146Z,0.30
2023-05-07T13:15:58.170Z,0.27
2023-05-07T13:16:58.178Z,0.38
2023-05-07T13:17:58.292Z,0.16
2023-05-07T13:18:58.214Z,0.32